createdAt,value
2019-03-25T00:01:21.290Z,3.16
2019-03-25T00:03:51.358Z,3.14
2019-03-25T00:06:21.112Z,3.11
2019-03-25T00:09:04.500Z,3.11
2019-03-25T00:11:22.343Z,3.09
2019-03-25T00:13:52.070Z,3.08
2019-03-25T00:16:21.853Z,3.08
2019-03-25T00:18:51.606Z,3.05
2019-03-25T00:21:21.355Z,3.02
2019-03-25T00:23:51.184Z,3.00
2019-03-25T00:26:20.932Z,2.98
2019-03-25T00:28:50.718Z,2.97
2019-03-25T00:31:20.525Z,2.96
2019-03-25T00:33:50.460Z,2.94
2019-03-25T00:36:20.195Z,2.93
2019-03-25T00:38:50.001Z,2.92
2019-03-25T00:41:19.744Z,2.90
2019-03-25T00:43:49.518Z,2.91
2019-03-25T00:46:19.337Z,2.89
2019-03-25T00:48:49.235Z,2.88
2019-03-25T00:51:18.983Z,2.85
2019-03-25T00:53:48.756Z,2.85
2019-03-25T00:56:20.590Z,2.83
2019-03-25T00:58:50.309Z,2.82
2019-03-25T01:01:20.159Z,2.79
2019-03-25T01:03:49.993Z,2.77
2019-03-25T01:06:19.900Z,2.76
2019-03-25T01:08:49.685Z,2.72
2019-03-25T01:11:19.521Z,2.70
2019-03-25T01:13:49.356Z,2.68
2019-03-25T01:16:19.192Z,2.66
2019-03-25T01:18:48.976Z,2.62
2019-03-25T01:21:18.769Z,2.58
2019-03-25T01:23:48.494Z,2.55
2019-03-25T01:26:18.278Z,1.83
2019-03-25T01:28:48.021Z,2.53
2019-03-25T01:31:17.839Z,1.86
2019-03-25T01:33:47.572Z,2.49
2019-03-25T01:36:17.378Z,2.47
2019-03-25T01:38:47.160Z,2.44
2019-03-25T01:41:16.907Z,2.42
2019-03-25T01:43:46.748Z,2.37
2019-03-25T01:46:16.492Z,2.35
2019-03-25T01:48:46.234Z,2.33
2019-03-25T01:51:15.964Z,2.31
2019-03-25T01:53:45.727Z,2.28
2019-03-25T01:56:15.501Z,2.26
2019-03-25T01:58:45.208Z,2.26
2019-03-25T02:01:14.994Z,2.27
2019-03-25T02:03:44.768Z,2.24
2019-03-25T02:06:14.522Z,2.21
2019-03-25T02:08:44.570Z,2.18
2019-03-25T02:11:14.349Z,2.16
2019-03-25T02:13:44.079Z,2.13
2019-03-25T02:16:14.287Z,2.12
2019-03-25T02:18:44.032Z,2.12
2019-03-25T02:21:14.681Z,2.09
2019-03-25T02:23:44.491Z,2.08
2019-03-25T02:26:14.239Z,2.06
2019-03-25T02:28:43.957Z,2.04
2019-03-25T02:31:13.962Z,2.04
2019-03-25T02:33:43.686Z,2.00
2019-03-25T02:36:13.505Z,1.99
2019-03-25T02:38:43.304Z,2.01
2019-03-25T02:41:13.070Z,1.96
2019-03-25T02:43:42.825Z,1.92
2019-03-25T02:46:12.659Z,1.89
2019-03-25T02:48:42.448Z,1.87
2019-03-25T02:51:12.419Z,1.83
2019-03-25T02:53:42.177Z,1.78
2019-03-25T02:56:11.908Z,1.76
2019-03-25T02:58:41.638Z,1.74
2019-03-25T03:01:11.462Z,1.72
2019-03-25T03:03:41.192Z,1.71
2019-03-25T03:06:10.919Z,1.70
2019-03-25T03:08:40.822Z,1.66
2019-03-25T03:11:10.928Z,1.65
2019-03-25T03:13:40.669Z,1.65
2019-03-25T03:16:10.491Z,1.67
2019-03-25T03:18:40.244Z,1.67
2019-03-25T03:21:10.001Z,1.66
2019-03-25T03:23:40.082Z,1.67
2019-03-25T03:26:09.811Z,1.63
2019-03-25T03:28:39.541Z,1.62
2019-03-25T03:31:09.378Z,1.59
2019-03-25T03:33:41.150Z,1.60
2019-03-25T03:36:10.891Z,1.62
2019-03-25T03:38:40.730Z,1.59
2019-03-25T03:41:10.470Z,1.58
2019-03-25T03:43:40.220Z,1.58
2019-03-25T03:46:10.052Z,1.56
2019-03-25T03:48:39.786Z,1.55
2019-03-25T03:51:09.544Z,1.53
2019-03-25T03:53:39.304Z,1.53
2019-03-25T03:56:13.263Z,1.51
2019-03-25T03:58:42.820Z,1.50
2019-03-25T04:01:12.593Z,1.47
2019-03-25T04:03:42.321Z,1.47
2019-03-25T04:06:12.088Z,1.44
2019-03-25T04:08:41.904Z,1.43
2019-03-25T04:11:11.711Z,1.39
2019-03-25T04:13:41.755Z,1.36
2019-03-25T04:16:11.521Z,1.34
2019-03-25T04:18:41.248Z,1.33
2019-03-25T04:21:10.979Z,1.35
2019-03-25T04:23:40.807Z,1.34
2019-03-25T04:26:10.556Z,1.34
2019-03-25T04:28:40.290Z,1.33
2019-03-25T04:31:10.060Z,1.33
2019-03-25T04:33:39.804Z,1.32
2019-03-25T04:36:09.637Z,1.32
2019-03-25T04:38:39.497Z,1.33
2019-03-25T04:41:09.265Z,1.33
2019-03-25T04:43:39.017Z,1.32
2019-03-25T04:46:08.832Z,1.31
2019-03-25T04:48:38.577Z,1.28
2019-03-25T04:51:08.903Z,1.27
2019-03-25T04:53:38.732Z,1.26
2019-03-25T04:56:08.467Z,1.25
2019-03-25T04:58:38.212Z,1.25
2019-03-25T05:01:08.066Z,1.23
2019-03-25T05:03:37.799Z,1.22
2019-03-25T05:06:07.631Z,1.21
2019-03-25T05:08:37.413Z,1.20
2019-03-25T05:11:07.376Z,1.24
2019-03-25T05:13:37.136Z,1.22
2019-03-25T05:16:07.262Z,1.19
2019-03-25T05:18:37.009Z,1.20
2019-03-25T05:21:06.867Z,1.21
2019-03-25T05:23:36.810Z,1.23
2019-03-25T05:26:06.644Z,1.24
2019-03-25T05:28:36.374Z,1.25
2019-03-25T05:31:06.180Z,1.25
2019-03-25T05:33:35.917Z,1.27
2019-03-25T05:36:05.684Z,1.29
2019-03-25T05:38:35.447Z,1.32
2019-03-25T05:41:05.277Z,1.34
2019-03-25T05:43:34.996Z,1.35
2019-03-25T05:46:04.834Z,1.38
2019-03-25T05:48:34.568Z,1.43
2019-03-25T05:51:04.316Z,1.47
2019-03-25T05:53:34.090Z,1.53
2019-03-25T05:56:03.811Z,1.58
2019-03-25T05:58:33.608Z,1.63
2019-03-25T06:01:03.602Z,1.71
2019-03-25T06:03:33.327Z,1.78
2019-03-25T06:06:03.249Z,1.88
2019-03-25T06:08:33.150Z,1.91
2019-03-25T06:11:02.972Z,1.96
2019-03-25T06:13:32.728Z,1.98
2019-03-25T06:16:02.693Z,1.99
2019-03-25T06:18:32.623Z,2.01
2019-03-25T06:21:02.402Z,2.02
2019-03-25T06:23:32.168Z,2.03
2019-03-25T06:26:01.866Z,2.08
2019-03-25T06:28:31.688Z,2.11
2019-03-25T06:31:01.466Z,2.19
2019-03-25T06:33:31.193Z,2.25
2019-03-25T06:36:00.938Z,2.31
2019-03-25T06:38:30.714Z,2.41
2019-03-25T06:41:00.463Z,2.57
2019-03-25T06:43:30.523Z,2.73
2019-03-25T06:46:00.328Z,2.84
2019-03-25T06:48:30.146Z,2.92
2019-03-25T06:50:59.923Z,3.02
2019-03-25T06:53:29.812Z,3.11
2019-03-25T06:55:59.648Z,3.13
2019-03-25T06:58:29.464Z,3.16
2019-03-25T07:01:00.137Z,3.19
2019-03-25T07:03:29.986Z,3.30
2019-03-25T07:06:02.115Z,3.40
2019-03-25T07:08:31.936Z,3.54
2019-03-25T07:11:01.772Z,3.66
2019-03-25T07:13:31.488Z,3.82
2019-03-25T07:16:01.388Z,3.95
2019-03-25T07:18:31.250Z,4.08
2019-03-25T07:21:01.555Z,4.13
2019-03-25T07:23:31.366Z,4.08
2019-03-25T07:26:01.152Z,4.08
2019-03-25T07:28:30.942Z,4.07
2019-03-25T07:31:02.087Z,4.05
2019-03-25T07:33:34.116Z,3.96
2019-03-25T07:36:03.886Z,3.21
2019-03-25T07:38:34.032Z,3.87
2019-03-25T07:41:03.802Z,3.87
2019-03-25T07:43:33.578Z,3.81
2019-03-25T07:46:03.406Z,3.79
2019-03-25T07:48:34.463Z,3.81
2019-03-25T07:51:04.254Z,3.58
2019-03-25T07:53:34.080Z,3.78
2019-03-25T07:56:05.234Z,3.81
2019-03-25T07:58:34.959Z,3.16
2019-03-25T08:02:51.191Z,3.86
2019-03-25T08:05:21.066Z,4.18
2019-03-25T08:11:52.845Z,5.91
2019-03-25T08:17:05.608Z,7.26
2019-03-25T08:19:35.401Z,7.55
2019-03-25T08:22:05.588Z,7.65
2019-03-25T08:24:36.425Z,7.46
2019-03-25T08:27:06.683Z,7.20
2019-03-25T08:29:36.432Z,7.11
2019-03-25T08:32:06.217Z,6.98
2019-03-25T08:34:36.075Z,6.72
2019-03-25T08:37:05.946Z,6.38
2019-03-25T08:39:35.867Z,6.07
2019-03-25T08:42:05.794Z,5.70
2019-03-25T08:44:35.813Z,5.41
2019-03-25T08:47:05.702Z,5.28
2019-03-25T08:49:35.867Z,4.98
2019-03-25T08:52:05.755Z,5.33
2019-03-25T08:54:37.839Z,5.36
2019-03-25T08:57:07.090Z,5.27
2019-03-25T08:59:36.844Z,5.14
2019-03-25T09:02:06.672Z,5.22
2019-03-25T09:04:36.466Z,5.77
2019-03-25T09:07:06.261Z,6.16
2019-03-25T09:09:36.144Z,6.64
2019-03-25T09:12:06.029Z,6.95
2019-03-25T09:14:35.806Z,7.44
2019-03-25T09:17:05.631Z,7.96
2019-03-25T09:19:35.394Z,7.96
2019-03-25T09:22:05.501Z,7.84
2019-03-25T09:24:37.499Z,7.60
2019-03-25T09:27:07.353Z,7.43
2019-03-25T09:29:37.131Z,7.22
2019-03-25T09:32:07.869Z,7.64
2019-03-25T09:34:37.710Z,8.13
2019-03-25T09:37:07.691Z,8.43
2019-03-25T09:39:37.604Z,9.04
2019-03-25T09:42:07.493Z,9.74
2019-03-25T09:44:37.412Z,10.40
2019-03-25T09:47:08.200Z,11.00
2019-03-25T09:49:38.000Z,11.51
2019-03-25T09:52:07.796Z,11.88
2019-03-25T09:54:37.649Z,12.05
2019-03-25T09:57:07.453Z,12.46
2019-03-25T09:59:37.197Z,12.86
2019-03-25T10:02:07.053Z,12.75
2019-03-25T10:04:36.892Z,13.35
2019-03-25T10:07:06.697Z,13.35
2019-03-25T10:09:36.576Z,13.37
2019-03-25T10:12:06.429Z,13.56
2019-03-25T10:14:36.244Z,13.73
2019-03-25T10:17:06.039Z,13.72
2019-03-25T10:19:35.859Z,13.89
2019-03-25T10:22:05.656Z,13.92
2019-03-25T10:24:35.453Z,13.91
2019-03-25T10:27:05.436Z,14.02
2019-03-25T10:29:35.240Z,14.13
2019-03-25T10:32:05.348Z,14.16
2019-03-25T10:34:35.103Z,14.00
2019-03-25T10:37:04.953Z,13.64
2019-03-25T10:39:34.830Z,14.58
2019-03-25T10:42:04.604Z,14.85
2019-03-25T10:44:34.386Z,14.85
2019-03-25T10:47:04.351Z,14.73
2019-03-25T10:49:34.163Z,14.73
2019-03-25T10:52:03.957Z,14.45
2019-03-25T10:54:33.934Z,14.06
2019-03-25T10:57:03.753Z,13.78
2019-03-25T10:59:33.509Z,13.56
2019-03-25T11:02:03.606Z,13.68
2019-03-25T11:04:33.540Z,13.87
2019-03-25T11:07:03.497Z,14.18
2019-03-25T11:09:33.312Z,14.08
2019-03-25T11:12:03.071Z,14.12
2019-03-25T11:14:32.838Z,14.42
2019-03-25T11:17:02.699Z,14.48
2019-03-25T11:19:32.489Z,14.64
2019-03-25T11:22:02.261Z,14.77
2019-03-25T11:24:32.063Z,14.86
2019-03-25T11:27:01.879Z,15.03
2019-03-25T11:29:31.963Z,15.12
2019-03-25T11:32:01.772Z,15.31
2019-03-25T11:34:31.543Z,15.62
2019-03-25T11:37:01.351Z,15.61
2019-03-25T11:39:31.208Z,15.49
2019-03-25T11:42:01.048Z,15.29
2019-03-25T11:44:30.795Z,15.16
2019-03-25T11:47:00.684Z,15.03
2019-03-25T11:49:30.597Z,15.09
2019-03-25T11:52:00.337Z,15.01
2019-03-25T11:54:30.391Z,14.91
2019-03-25T11:57:00.129Z,14.95
2019-03-25T11:59:29.872Z,14.96
2019-03-25T12:01:59.747Z,15.02
2019-03-25T12:04:29.503Z,15.23
2019-03-25T12:06:59.222Z,15.24
2019-03-25T12:09:29.036Z,15.29
2019-03-25T12:11:58.818Z,15.29
2019-03-25T12:14:28.655Z,15.10
2019-03-25T12:16:58.436Z,14.94
2019-03-25T12:19:28.206Z,14.96
2019-03-25T12:21:57.948Z,14.86
2019-03-25T12:24:27.712Z,15.02
2019-03-25T12:26:57.511Z,15.20
2019-03-25T12:29:30.431Z,15.28
2019-03-25T12:31:59.111Z,15.44
2019-03-25T12:34:28.976Z,15.80
2019-03-25T12:36:58.664Z,16.17
2019-03-25T12:39:28.502Z,16.63
2019-03-25T12:41:58.231Z,16.85
2019-03-25T12:44:28.011Z,16.61
2019-03-25T12:46:57.791Z,16.39
2019-03-25T12:49:27.535Z,16.43
2019-03-25T12:51:57.305Z,16.86
2019-03-25T12:54:27.111Z,17.22
2019-03-25T12:56:56.838Z,17.45
2019-03-25T12:59:26.658Z,17.74
2019-03-25T13:01:56.451Z,17.90
2019-03-25T13:04:26.229Z,17.89
2019-03-25T13:06:55.963Z,17.72
2019-03-25T13:09:25.769Z,17.80
2019-03-25T13:11:55.512Z,18.26
2019-03-25T13:14:25.294Z,18.68
2019-03-25T13:16:55.095Z,19.07
2019-03-25T13:19:24.822Z,18.86
2019-03-25T13:21:54.641Z,18.89
2019-03-25T13:24:24.489Z,19.22
2019-03-25T13:26:54.636Z,19.08
2019-03-25T13:29:24.473Z,19.13
2019-03-25T13:31:54.287Z,18.99
2019-03-25T13:34:24.542Z,18.86
2019-03-25T13:36:54.327Z,18.70
2019-03-25T13:39:24.252Z,18.84
2019-03-25T13:41:54.030Z,18.86
2019-03-25T13:44:23.836Z,18.92
2019-03-25T13:46:54.076Z,19.07
2019-03-25T13:49:23.883Z,19.16
2019-03-25T13:51:53.664Z,19.24
2019-03-25T13:54:23.514Z,19.19
2019-03-25T13:56:53.311Z,19.33
2019-03-25T13:59:23.101Z,19.30
2019-03-25T14:01:53.001Z,19.32
2019-03-25T14:04:22.790Z,19.28
2019-03-25T14:06:52.559Z,19.51
2019-03-25T14:09:22.396Z,19.87
2019-03-25T14:11:52.212Z,20.18
2019-03-25T14:14:22.023Z,19.79
2019-03-25T14:16:51.825Z,19.44
2019-03-25T14:19:21.824Z,19.39
2019-03-25T14:21:51.800Z,19.74
2019-03-25T14:24:21.691Z,19.16
2019-03-25T14:26:51.544Z,17.78
2019-03-25T14:29:21.489Z,17.76
2019-03-25T14:31:51.376Z,18.37
2019-03-25T14:34:21.242Z,18.94
2019-03-25T14:36:51.471Z,19.49
2019-03-25T14:39:21.353Z,19.49
2019-03-25T14:41:51.156Z,19.73
2019-03-25T14:44:21.026Z,19.65
2019-03-25T14:46:50.905Z,19.53
2019-03-25T14:49:20.694Z,19.33
2019-03-25T14:51:51.134Z,19.53
2019-03-25T14:54:20.957Z,19.71
2019-03-25T14:56:50.734Z,19.50
2019-03-25T14:59:20.877Z,19.48
2019-03-25T15:01:50.701Z,19.39
2019-03-25T15:04:20.536Z,19.30
2019-03-25T15:06:50.490Z,19.64
2019-03-25T15:09:20.330Z,19.66
2019-03-25T15:11:50.104Z,18.64
2019-03-25T15:14:20.027Z,17.04
2019-03-25T15:16:49.941Z,16.04
2019-03-25T15:19:19.733Z,15.13
2019-03-25T15:21:49.641Z,15.09
2019-03-25T15:24:19.476Z,15.37
2019-03-25T15:26:49.600Z,15.83
2019-03-25T15:29:19.647Z,16.31
2019-03-25T15:31:49.469Z,16.95
2019-03-25T15:34:19.300Z,17.21
2019-03-25T15:36:49.419Z,17.22
2019-03-25T15:39:19.397Z,16.91
2019-03-25T15:41:49.246Z,16.84
2019-03-25T15:44:19.255Z,16.29
2019-03-25T15:46:55.728Z,15.41
2019-03-25T15:49:21.145Z,14.53
2019-03-25T15:51:51.000Z,13.83
2019-03-25T15:54:20.960Z,13.08
2019-03-25T15:56:50.849Z,12.50
2019-03-25T15:59:20.667Z,12.45
2019-03-25T16:01:50.542Z,12.77
2019-03-25T16:04:20.513Z,12.88
2019-03-25T16:06:50.632Z,13.08
2019-03-25T16:09:20.517Z,13.10
2019-03-25T16:11:50.537Z,12.85
2019-03-25T16:14:20.380Z,12.36
2019-03-25T16:16:50.293Z,11.98
2019-03-25T16:19:20.321Z,11.83
2019-03-25T16:21:50.115Z,11.54
2019-03-25T16:24:20.315Z,11.22
2019-03-25T16:26:50.335Z,10.94
2019-03-25T16:29:20.171Z,10.73
2019-03-25T16:31:50.364Z,10.48
2019-03-25T16:34:20.613Z,10.12
2019-03-25T16:36:50.500Z,9.77
2019-03-25T16:39:20.376Z,9.46
2019-03-25T16:41:50.418Z,9.19
2019-03-25T16:44:20.270Z,8.95
2019-03-25T16:46:50.251Z,8.66
2019-03-25T16:49:21.230Z,8.41
2019-03-25T16:51:51.010Z,8.25
2019-03-25T16:54:20.864Z,8.12
2019-03-25T16:56:50.977Z,7.98
2019-03-25T16:59:20.900Z,7.87
2019-03-25T17:01:50.857Z,7.77
2019-03-25T17:04:20.992Z,7.68
2019-03-25T17:06:50.789Z,7.54
2019-03-25T17:09:20.607Z,7.41
2019-03-25T17:11:50.642Z,7.31
2019-03-25T17:14:20.434Z,7.20
2019-03-25T17:16:50.323Z,7.11
2019-03-25T17:19:20.185Z,7.03
2019-03-25T17:21:58.093Z,6.97
2019-03-25T17:24:21.946Z,6.91
2019-03-25T17:26:51.758Z,6.84
2019-03-25T17:29:21.602Z,6.72
2019-03-25T17:31:51.688Z,6.63
2019-03-25T17:34:21.514Z,6.57
2019-03-25T17:36:51.518Z,6.48
2019-03-25T17:39:21.667Z,6.43
2019-03-25T17:41:51.687Z,6.37
2019-03-25T17:44:21.665Z,6.31
2019-03-25T17:46:51.719Z,6.25
2019-03-25T17:49:21.633Z,6.13
2019-03-25T17:51:51.606Z,6.07
2019-03-25T17:54:21.476Z,6.03
2019-03-25T17:56:51.242Z,5.96
2019-03-25T17:59:21.022Z,5.92
2019-03-25T18:01:50.961Z,5.93
2019-03-25T18:04:20.880Z,5.92
2019-03-25T18:06:50.845Z,5.91
2019-03-25T18:09:20.837Z,5.88
2019-03-25T18:11:50.655Z,5.83
2019-03-25T18:14:20.534Z,5.80
2019-03-25T18:16:50.687Z,5.66
2019-03-25T18:19:23.093Z,5.70
2019-03-25T18:21:53.281Z,5.64
2019-03-25T18:24:23.288Z,5.49
2019-03-25T18:26:53.216Z,5.40
2019-03-25T18:29:24.316Z,5.31
2019-03-25T18:31:54.258Z,5.14
2019-03-25T18:34:24.108Z,5.25
2019-03-25T18:36:54.090Z,5.17
2019-03-25T18:39:24.335Z,5.12
2019-03-25T18:41:56.093Z,5.06
2019-03-25T18:44:25.891Z,5.01
2019-03-25T18:47:00.829Z,4.92
2019-03-25T18:49:30.930Z,4.93
2019-03-25T18:52:01.899Z,4.39
2019-03-25T18:54:32.184Z,4.87
2019-03-25T18:57:02.124Z,4.88
2019-03-25T18:59:32.199Z,4.88
2019-03-25T19:02:02.338Z,4.86
2019-03-25T19:04:32.411Z,4.82
2019-03-25T19:07:08.223Z,4.81
2019-03-25T19:09:38.096Z,4.78
2019-03-25T19:12:07.947Z,4.75
2019-03-25T19:14:37.981Z,4.73
2019-03-25T19:17:07.819Z,4.69
2019-03-25T19:19:37.671Z,4.67
2019-03-25T19:22:07.829Z,4.66
2019-03-25T19:24:37.722Z,4.65
2019-03-25T19:27:07.507Z,4.63
2019-03-25T19:29:38.608Z,4.60
2019-03-25T19:32:08.730Z,4.60
2019-03-25T19:34:38.559Z,4.56
2019-03-25T19:37:08.928Z,4.50
2019-03-25T19:39:38.840Z,4.45
2019-03-25T19:42:08.704Z,4.40
2019-03-25T19:44:38.702Z,4.39
2019-03-25T19:47:08.700Z,4.35
2019-03-25T19:49:38.608Z,4.35
2019-03-25T19:52:09.569Z,4.38
2019-03-25T19:54:39.543Z,4.43
2019-03-25T19:57:09.423Z,4.37
2019-03-25T19:59:39.280Z,4.34
2019-03-25T20:02:18.316Z,4.30
2019-03-25T20:04:40.802Z,4.23
2019-03-25T20:07:10.569Z,4.18
2019-03-25T20:09:42.439Z,4.21
2019-03-25T20:12:12.350Z,4.19
2019-03-25T20:14:42.207Z,4.15
2019-03-25T20:17:12.047Z,4.09
2019-03-25T20:19:42.270Z,4.00
2019-03-25T20:22:12.169Z,3.95
2019-03-25T20:24:41.999Z,3.91
2019-03-25T20:27:12.036Z,3.90
2019-03-25T20:29:42.060Z,3.89
2019-03-25T20:32:11.891Z,3.91
2019-03-25T20:34:41.879Z,3.94
2019-03-25T20:37:11.781Z,3.91
2019-03-25T20:39:41.611Z,3.90
2019-03-25T20:42:11.684Z,3.90
2019-03-25T20:44:43.612Z,3.88
2019-03-25T20:47:13.566Z,3.88
2019-03-25T20:49:45.455Z,3.88
2019-03-25T20:52:15.590Z,3.83
2019-03-25T20:54:45.428Z,3.78
2019-03-25T20:57:15.298Z,3.73
2019-03-25T20:59:46.490Z,3.70
2019-03-25T21:02:16.312Z,3.72
2019-03-25T21:04:46.358Z,3.66
2019-03-25T21:07:16.249Z,3.62
2019-03-25T21:09:46.057Z,3.54
2019-03-25T21:12:16.088Z,3.48
2019-03-25T21:14:46.018Z,3.42
2019-03-25T21:17:15.835Z,3.39
2019-03-25T21:19:45.830Z,3.38
2019-03-25T21:22:16.104Z,3.36
2019-03-25T21:24:46.098Z,3.36
2019-03-25T21:27:20.084Z,3.35
2019-03-25T21:29:49.961Z,3.31
2019-03-25T21:32:20.020Z,3.30
2019-03-25T21:34:50.154Z,3.28
2019-03-25T21:37:20.018Z,3.24
2019-03-25T21:39:49.880Z,3.23
2019-03-25T21:42:19.858Z,3.21
2019-03-25T21:44:49.702Z,3.22
2019-03-25T21:47:19.521Z,3.21
2019-03-25T21:49:49.661Z,3.19
2019-03-25T21:52:19.534Z,3.19
2019-03-25T21:54:49.419Z,3.21
2019-03-25T21:57:19.408Z,3.23
2019-03-25T21:59:49.252Z,3.26
2019-03-25T22:02:19.012Z,3.27
2019-03-25T22:04:49.205Z,3.26
2019-03-25T22:07:18.986Z,3.25
2019-03-25T22:09:48.771Z,3.24
2019-03-25T22:12:18.687Z,3.28
2019-03-25T22:14:48.528Z,3.29
2019-03-25T22:17:18.310Z,3.30
2019-03-25T22:19:48.358Z,3.32
2019-03-25T22:22:18.167Z,3.30
2019-03-25T22:24:47.957Z,3.28
2019-03-25T22:27:18.034Z,3.25
2019-03-25T22:29:47.834Z,3.25
2019-03-25T22:32:17.613Z,3.20
2019-03-25T22:34:47.543Z,3.17
2019-03-25T22:37:17.550Z,3.12
2019-03-25T22:39:47.341Z,3.11
2019-03-25T22:42:17.413Z,3.08
2019-03-25T22:44:47.185Z,3.07
2019-03-25T22:47:17.010Z,3.03
2019-03-25T22:49:47.059Z,3.05
2019-03-25T22:52:16.846Z,3.04
2019-03-25T22:54:46.632Z,3.02
2019-03-25T22:57:17.007Z,3.02
2019-03-25T22:59:46.772Z,2.98
2019-03-25T23:02:16.581Z,2.93
2019-03-25T23:04:46.729Z,2.91
2019-03-25T23:07:16.596Z,2.89
2019-03-25T23:09:46.413Z,2.88
2019-03-25T23:12:16.497Z,2.85
2019-03-25T23:14:46.279Z,2.84
2019-03-25T23:17:16.071Z,2.83
2019-03-25T23:19:46.160Z,2.82
2019-03-25T23:22:16.077Z,2.82
2019-03-25T23:24:45.965Z,2.81
2019-03-25T23:27:15.791Z,2.83
2019-03-25T23:29:45.900Z,2.82
2019-03-25T23:32:15.667Z,2.84
2019-03-25T23:34:45.535Z,2.86
2019-03-25T23:37:15.397Z,2.86
2019-03-25T23:39:45.267Z,2.87
2019-03-25T23:42:15.093Z,2.89
2019-03-25T23:44:44.960Z,2.89
2019-03-25T23:47:14.738Z,2.91
2019-03-25T23:49:44.534Z,2.93
2019-03-25T23:52:14.507Z,2.98
2019-03-25T23:54:44.368Z,2.97
2019-03-25T23:57:14.193Z,2.99
2019-03-25T23:59:44.347Z,2.94
